Hughes, Alaska
Current Conditions -  °F | °C
As of 1:55 AM on Thursday 23 Oct 2014 (Local Time) from PAIM Reporting Station
Overcast Overcast  
Wind Chill: 24°   Ceiling: 7500
Heat Index: 24°   Visibility: 10mi
Dew Point: 21°   Wind: 0mph
Humidity: 89%   Direction: NA
Pressure: 29.77"   Gusts: NA
Location:  66.05°N, 154.26°W
Report Text: PAIM 230955Z AUTO 00000KT 10SM SCT028 OVC075 M04/M06 A2977 RMK AO2 SNB0855E0901SHSNB0901E0951 SLP106 T10441060
Loading
Personal Weather Stations






























Interactive Weather Map
Tropical Storm Tracking
New forecast layout! Learn more

10-Day Weather Forecast

Advertisements
Track Severe Weather on mobile